New Liberty, Iowa
Current Conditions -  °F | °C
As of 7:52 AM on Monday 24 Nov 2014 (Local Time) from KDVN Reporting Station
Moderate Snow Moderate Snow  
Wind Chill: 15°   Ceiling: 800
Heat Index: 29°   Visibility: 0.5mi
Dew Point: 27°   Wind: 25mph
Humidity: 92%   Direction: 280°W
Pressure: 29.31"   Gusts: NA
Location:  41.72°N, 90.88°W
Report Text: KDVN 241352Z AUTO 28022KT 1/2SM SN FZFG VV008 M02/M03 A2931 RMK AO2 PK WND 28032/1340 SLP929 P0001 T10171028
Loading
Personal Weather Stations






























Interactive Weather Map New forecast layout! Learn more

10-Day Weather Forecast

Advertisements
Track Severe Weather on mobile